PWSweather.com
Personal Weather Stations
Station Observations
BLACKWELL
Blackwell, AlfretonGB DE55

BlackwellAlfretonGB DE55

Lat: 53.12076, Lon: -1.354978

Elevation: 410

Station Type: Vantage Pro

High Low Average
Temperature 45.0°F7.2°C 33.3°F0.7°C 38.4°F3.6°C
Dew Point 38.7°F3.7°C 31.5°F-0.3°C 34.1°F1.2°C
Winds 6.0 mph 9.7 kmh Calm Calm 2.0 mph S3.2 kmh S
Wind Gusts 16.0 mph25.7 kmh -- 6.0 mph9.7 kmh
Humidity 96% 62% 85%
Pressure 29.88 in1011.9 mb 29.52 in999.7 mb -
Precipitation 0.23 in5.8 mm - -
Hour Temp Dew Point Humidity Winds Wind Gusts Pressure Precip Precip Rate Daily Precip Total
12:44 AM 40.8°F4.9°C 37.6°F3.1°C 88% Calm Calm 1.0 mph1.6 kmh 29.74 in1007.1 mb 0.00 in0.0 mm 0.00 in0.0 mm 0.00 in0.0 mm
01:44 AM 40.5°F4.7°C 37.8°F3.2°C 90% Calm Calm -- 29.69 in1005.4 mb 0.01 in0.3 mm 0.00 in0.0 mm 0.01 in0.3 mm
02:44 AM 39.4°F4.1°C 37.4°F3.0°C 93% Calm Calm 1.0 mph1.6 kmh 29.63 in1003.4 mb 0.02 in0.5 mm 0.00 in0.0 mm 0.03 in0.8 mm
03:44 AM 38.7°F3.7°C 37.0°F2.8°C 94% Calm Calm 3.0 mph4.8 kmh 29.58 in1001.7 mb 0.03 in0.8 mm 0.00 in0.0 mm 0.06 in1.5 mm
04:44 AM 36.5°F2.5°C 34.9°F1.6°C 94% Calm Calm 3.0 mph4.8 kmh 29.54 in1000.3 mb 0.06 in1.5 mm 0.00 in0.0 mm 0.12 in3.0 mm
05:44 AM 34.9°F1.6°C 33.6°F0.9°C 95% Calm Calm 1.0 mph1.6 kmh 29.53 in1000.0 mb 0.06 in1.5 mm 0.00 in0.0 mm 0.18 in4.6 mm
06:44 AM 33.3°F0.7°C 32.0°F0.0°C 95% Calm Calm 1.0 mph1.6 kmh 29.52 in999.7 mb 0.00 in0.0 mm 0.00 in0.0 mm 0.18 in4.6 mm
07:44 AM 33.4°F0.8°C 32.2°F0.1°C 95% Calm Calm 3.0 mph4.8 kmh 29.55 in1000.7 mb 0.00 in0.0 mm 0.00 in0.0 mm 0.18 in4.6 mm
08:44 AM 34.3°F1.3°C 33.3°F0.7°C 96% Calm Calm 1.0 mph1.6 kmh 29.60 in1002.4 mb 0.00 in0.0 mm 0.00 in0.0 mm 0.18 in4.6 mm
09:44 AM 36.1°F2.3°C 35.1°F1.7°C 96% Calm Calm 2.0 mph3.2 kmh 29.66 in1004.4 mb 0.00 in0.0 mm 0.00 in0.0 mm 0.18 in4.6 mm
10:44 AM 37.2°F2.9°C 36.3°F2.4°C 96% 1.0 mph WSW1.6 kmh WSW 6.0 mph9.7 kmh 29.69 in1005.4 mb 0.04 in1.0 mm 0.00 in0.0 mm 0.22 in5.6 mm
11:44 AM 41.2°F5.1°C 38.7°F3.7°C 91% 2.0 mph SW3.2 kmh SW 10.0 mph16.1 kmh 29.71 in1006.1 mb 0.00 in0.0 mm 0.00 in0.0 mm 0.22 in5.6 mm
12:44 PM 45.0°F7.2°C 36.1°F2.3°C 71% 4.0 mph SW6.4 kmh SW 10.0 mph16.1 kmh 29.73 in1006.8 mb 0.01 in0.3 mm 0.00 in0.0 mm 0.23 in5.8 mm
01:44 PM 39.7°F4.3°C 33.4°F0.8°C 78% 6.0 mph SW9.7 kmh SW 15.0 mph24.1 kmh 29.77 in1008.1 mb 0.00 in0.0 mm 0.00 in0.0 mm 0.23 in5.8 mm
02:44 PM 43.7°F6.5°C 34.2°F1.2°C 69% 6.0 mph SW9.7 kmh SW 16.0 mph25.7 kmh 29.77 in1008.1 mb 0.00 in0.0 mm 0.00 in0.0 mm 0.23 in5.8 mm
03:44 PM 44.2°F6.8°C 32.0°F0.0°C 62% 3.0 mph SW4.8 kmh SW 9.0 mph14.5 kmh 29.81 in1009.5 mb 0.00 in0.0 mm 0.00 in0.0 mm 0.23 in5.8 mm
04:44 PM 42.6°F5.9°C 31.6°F-0.2°C 65% 2.0 mph SW3.2 kmh SW 9.0 mph14.5 kmh 29.83 in1010.2 mb 0.00 in0.0 mm 0.00 in0.0 mm 0.23 in5.8 mm
05:44 PM 42.1°F5.6°C 31.8°F-0.1°C 67% 1.0 mph SW1.6 kmh SW 5.0 mph8.0 kmh 29.84 in1010.5 mb 0.00 in0.0 mm 0.00 in0.0 mm 0.23 in5.8 mm
06:44 PM 36.9°F2.7°C 33.1°F0.6°C 86% 2.0 mph SW3.2 kmh SW 6.0 mph9.7 kmh 29.85 in1010.8 mb 0.00 in0.0 mm 0.00 in0.0 mm 0.23 in5.8 mm
07:44 PM 37.0°F2.8°C 31.6°F-0.2°C 81% 5.0 mph SW8.0 kmh SW 10.0 mph16.1 kmh 29.86 in1011.2 mb 0.00 in0.0 mm 0.00 in0.0 mm 0.23 in5.8 mm
08:44 PM 36.3°F2.4°C 31.6°F-0.2°C 83% 2.0 mph SW3.2 kmh SW 6.0 mph9.7 kmh 29.86 in1011.2 mb 0.00 in0.0 mm 0.00 in0.0 mm 0.23 in5.8 mm
09:44 PM 35.4°F1.9°C 32.2°F0.1°C 88% 3.0 mph SW4.8 kmh SW 10.0 mph16.1 kmh 29.87 in1011.5 mb 0.00 in0.0 mm 0.00 in0.0 mm 0.23 in5.8 mm
10:44 PM 37.4°F3.0°C 31.5°F-0.3°C 79% 3.0 mph SW4.8 kmh SW 8.0 mph12.9 kmh 29.88 in1011.9 mb 0.00 in0.0 mm 0.00 in0.0 mm 0.23 in5.8 mm
11:44 PM 35.2°F1.8°C 32.4°F0.2°C 89% 4.0 mph SW6.4 kmh SW 8.0 mph12.9 kmh 29.88 in1011.9 mb 0.00 in0.0 mm 0.00 in0.0 mm 0.23 in5.8 mm